Howden, United Kingdom
Current Conditions -  °F | °C
As of 8:20 PM on Wednesday 26 Nov 2014 (Local Time) from EGCN Reporting Station
Haze Haze  
Wind Chill: 44°   Ceiling: 200
Heat Index: 46°   Visibility: 0.68mi
Dew Point: 45°   Wind: 6mph
Humidity: 93%   Direction: 350°N
Pressure: 29.83"   Gusts: NA
Location:  53.74°N, 0.87°W
Report Text: EGCN 262020Z 35005KT 1100 R20/0800 BR OVC002 08/07 Q1010
Loading
Personal Weather Stations






























Interactive Weather Map New forecast layout! Learn more

10-Day Weather Forecast

Advertisements
Track Severe Weather on mobile